createdAt,value
2018-02-06T20:12:50.651Z,15.57
2018-02-06T20:15:16.911Z,14.77
2018-02-06T20:17:43.251Z,23.80
2018-02-06T20:20:10.287Z,22.43
2018-02-06T20:22:36.643Z,22.47
2018-02-06T20:25:03.042Z,13.93
2018-02-06T20:27:37.010Z,19.47
2018-02-06T20:30:03.355Z,19.90
2018-02-06T20:32:29.587Z,19.27
2018-02-06T20:34:55.819Z,12.50
2018-02-06T20:37:22.045Z,10.63
2018-02-06T20:39:48.339Z,13.70
2018-02-06T20:42:14.647Z,10.63
2018-02-06T20:44:41.627Z,14.57
2018-02-06T20:47:07.868Z,15.63
2018-02-06T20:49:34.099Z,16.40
2018-02-06T20:52:00.360Z,12.37
2018-02-06T20:54:26.925Z,13.73
2018-02-06T20:56:53.910Z,14.47
2018-02-06T20:59:20.167Z,13.43
2018-02-06T21:01:46.407Z,13.73
2018-02-06T21:04:12.711Z,13.83
2018-02-06T21:06:38.943Z,14.27
2018-02-06T21:09:05.199Z,10.50
2018-02-06T21:11:32.163Z,8.53
2018-02-06T21:13:59.220Z,11.53
2018-02-06T21:16:25.443Z,8.67
2018-02-06T21:18:51.666Z,10.67
2018-02-06T21:21:18.659Z,10.47
2018-02-06T21:23:44.899Z,9.80
2018-02-06T21:26:11.135Z,10.30
2018-02-06T21:28:37.360Z,7.60
2018-02-06T21:31:03.579Z,12.17
2018-02-06T21:33:29.842Z,10.07
2018-02-06T21:35:56.831Z,10.83
2018-02-06T21:38:23.051Z,8.40
2018-02-06T21:40:49.282Z,8.43
2018-02-06T21:43:15.519Z,13.00
2018-02-06T21:45:41.744Z,10.13
2018-02-06T21:48:07.967Z,11.27
2018-02-06T21:50:34.234Z,15.57
2018-02-06T21:53:00.512Z,11.43
2018-02-06T21:55:26.735Z,8.00
2018-02-06T21:57:52.999Z,8.27
2018-02-06T22:00:19.259Z,8.43
2018-02-06T22:02:45.483Z,8.93
2018-02-06T22:05:11.718Z,9.00
2018-02-06T22:07:38.208Z,10.37
2018-02-06T22:10:04.451Z,14.30
2018-02-06T22:12:30.691Z,8.13
2018-02-06T22:14:56.935Z,9.40
2018-02-06T22:17:23.179Z,12.47
